createdAt,value
2022-10-20T05:36:40.366Z,1.75
2022-10-20T05:43:49.943Z,2.26
2022-10-20T05:51:00.318Z,3.19
2022-10-20T06:04:23.552Z,4.13
2022-10-20T06:11:16.665Z,4.10
2022-10-20T06:18:05.891Z,4.33
2022-10-20T06:24:48.017Z,4.48
2022-10-20T06:31:21.318Z,4.50
2022-10-20T06:37:48.609Z,4.64
2022-10-20T06:44:10.346Z,4.93
2022-10-20T06:50:56.102Z,5.14
2022-10-20T06:57:38.975Z,5.28
2022-10-20T07:04:21.051Z,5.32
2022-10-20T07:10:07.285Z,5.45
2022-10-20T07:16:28.270Z,5.44
2022-10-20T07:22:51.789Z,5.54
2022-10-20T07:28:42.257Z,5.69
2022-10-20T07:35:03.377Z,5.98
2022-10-20T07:41:47.667Z,6.32
2022-10-20T07:48:29.895Z,6.52
2022-10-20T07:55:38.200Z,6.74
2022-10-20T08:02:36.469Z,6.99
2022-10-20T08:09:18.915Z,7.09
2022-10-20T08:16:09.388Z,7.30
2022-10-20T08:23:01.754Z,7.56
2022-10-20T08:30:06.272Z,7.97
2022-10-20T08:36:56.048Z,8.19
2022-10-20T08:42:42.067Z,8.35
2022-10-20T08:48:03.071Z,8.54
2022-10-20T08:53:26.069Z,8.74
2022-10-20T08:58:57.906Z,8.78
2022-10-20T09:05:07.647Z,8.72
2022-10-20T09:10:39.523Z,8.84
2022-10-20T09:17:11.336Z,9.15
2022-10-20T09:23:54.180Z,9.21
2022-10-20T09:30:36.090Z,9.49
2022-10-20T09:37:17.482Z,9.48
2022-10-20T09:43:42.960Z,9.78
2022-10-20T09:49:51.801Z,10.15
2022-10-20T09:55:59.601Z,10.40
2022-10-20T10:02:21.455Z,10.55
2022-10-20T10:08:57.144Z,10.43
2022-10-20T10:15:44.450Z,10.53
2022-10-20T10:22:26.341Z,10.79
2022-10-20T10:29:06.636Z,10.86
2022-10-20T10:36:09.171Z,10.72
2022-10-20T11:03:43.726Z,11.66
2022-10-20T11:10:47.114Z,11.65
2022-10-20T11:17:36.555Z,11.92
2022-10-20T11:39:31.131Z,12.32
2022-10-20T11:46:14.486Z,12.66
2022-10-20T11:53:22.003Z,12.68
2022-10-20T12:00:07.954Z,12.71
2022-10-20T12:06:36.275Z,13.00
2022-10-20T12:57:27.997Z,15.20
2022-10-20T13:02:52.264Z,15.27
2022-10-20T13:08:21.260Z,15.46
2022-10-20T13:14:01.457Z,15.65
2022-10-20T13:20:01.441Z,15.75
2022-10-20T13:26:00.341Z,15.87
2022-10-20T13:32:03.822Z,16.23
2022-10-20T13:38:01.771Z,16.17
2022-10-20T13:43:35.635Z,16.34
2022-10-20T13:50:07.951Z,16.58
2022-10-20T13:56:00.601Z,16.84
2022-10-20T14:01:29.427Z,16.96
2022-10-20T14:06:55.328Z,17.00
2022-10-20T14:12:29.046Z,17.12
2022-10-20T14:19:00.701Z,17.33
2022-10-20T14:25:47.194Z,17.49
2022-10-20T14:32:30.519Z,17.48
2022-10-20T14:39:17.785Z,17.46
2022-10-20T14:46:10.582Z,17.31
2022-10-20T14:59:42.693Z,16.20
2022-10-20T15:36:42.085Z,13.77
2022-10-20T15:42:33.950Z,13.09
2022-10-20T15:48:21.283Z,12.39
2022-10-20T15:53:47.233Z,11.97
2022-10-20T16:00:47.200Z,11.58
2022-10-20T16:07:40.235Z,11.05
2022-10-20T16:13:22.699Z,10.74
2022-10-20T16:24:38.409Z,11.53
2022-10-20T16:30:01.166Z,12.21
2022-10-20T16:35:23.378Z,11.99
2022-10-20T16:40:57.353Z,11.48
2022-10-20T16:46:21.219Z,11.71
2022-10-20T16:59:19.634Z,13.43
2022-10-20T17:05:08.365Z,14.15
2022-10-20T17:10:54.109Z,14.49
2022-10-20T17:17:07.604Z,13.74
2022-10-20T17:22:41.599Z,12.45
2022-10-20T17:28:23.910Z,11.46
2022-10-20T17:33:47.785Z,10.62
2022-10-20T17:39:30.464Z,9.90
2022-10-20T17:44:52.582Z,9.42
2022-10-20T17:50:23.845Z,8.87
2022-10-20T17:55:46.191Z,8.39
2022-10-20T18:01:30.221Z,7.97
2022-10-20T18:06:58.613Z,7.61
2022-10-20T18:12:23.371Z,7.31
2022-10-20T18:17:48.054Z,7.10
2022-10-20T18:23:12.206Z,6.94
2022-10-20T18:28:38.379Z,6.77
2022-10-20T18:34:06.539Z,6.62
2022-10-20T18:39:32.817Z,6.48
2022-10-20T18:44:55.261Z,6.42
2022-10-20T18:50:17.535Z,6.38
2022-10-20T18:55:42.734Z,6.32
2022-10-20T19:01:08.034Z,6.27
2022-10-20T19:06:37.084Z,6.15
2022-10-20T19:12:03.605Z,6.08
2022-10-20T19:17:34.315Z,5.95
2022-10-20T19:22:57.669Z,5.81
2022-10-20T19:28:19.925Z,5.86
2022-10-20T19:33:42.773Z,5.91
2022-10-20T19:39:10.326Z,5.88
2022-10-20T19:44:32.831Z,5.80
2022-10-20T19:49:55.247Z,5.71
2022-10-20T19:55:18.738Z,5.64
2022-10-20T20:00:52.149Z,5.58
2022-10-20T20:06:19.536Z,5.56
2022-10-20T20:11:44.577Z,5.59
2022-10-20T20:17:11.211Z,5.53
2022-10-20T20:22:36.262Z,5.39
2022-10-20T20:28:00.708Z,5.36
2022-10-20T20:33:30.756Z,5.35
2022-10-20T20:38:56.650Z,5.40
2022-10-20T20:49:47.422Z,5.43
2022-10-20T20:55:09.862Z,5.44
2022-10-20T21:00:32.745Z,5.44
2022-10-20T21:05:56.353Z,5.40
2022-10-20T21:11:28.478Z,5.36
2022-10-20T21:16:52.302Z,5.36
2022-10-20T21:22:15.496Z,5.41
2022-10-20T21:27:39.739Z,5.40
2022-10-20T21:33:02.230Z,5.37
2022-10-20T21:38:29.157Z,5.26
2022-10-20T21:43:56.388Z,5.19
2022-10-20T21:49:42.247Z,5.21
2022-10-20T21:55:11.540Z,5.22
2022-10-20T22:00:34.675Z,5.18
2022-10-20T22:06:00.286Z,5.17
2022-10-20T22:11:29.910Z,5.14
2022-10-20T22:16:55.995Z,5.10
2022-10-20T22:22:21.990Z,5.12
2022-10-20T22:27:45.976Z,5.13
2022-10-20T22:33:08.706Z,5.12
2022-10-20T22:38:31.945Z,5.07
2022-10-20T22:43:55.330Z,4.99
2022-10-20T22:49:22.394Z,4.98
2022-10-20T22:55:07.896Z,6.57
2022-10-20T23:00:51.956Z,8.52
2022-10-20T23:06:57.171Z,9.67
2022-10-20T23:12:52.791Z,9.85
2022-10-20T23:18:38.454Z,9.15
2022-10-20T23:25:01.865Z,8.37
2022-10-20T23:31:00.878Z,7.72
2022-10-20T23:38:00.543Z,7.16
2022-10-20T23:44:42.753Z,6.68
2022-10-20T23:50:58.983Z,6.28
2022-10-20T23:56:49.926Z,5.99
